createdAt,value
2022-08-09T00:02:14.184Z,55.30
2022-08-09T00:06:18.272Z,55.80
2022-08-09T00:09:58.449Z,56.10
2022-08-09T00:13:40.889Z,56.20
2022-08-09T00:18:06.044Z,56.30
2022-08-09T00:21:27.387Z,56.60
2022-08-09T00:25:12.831Z,56.50
2022-08-09T00:28:55.679Z,56.90
2022-08-09T00:32:40.016Z,57.50
2022-08-09T00:36:29.677Z,57.60
2022-08-09T00:40:17.356Z,57.90
2022-08-09T00:44:15.308Z,57.80
2022-08-09T00:48:05.603Z,57.90
2022-08-09T00:51:54.252Z,58.30
2022-08-09T00:56:05.741Z,58.50
2022-08-09T00:59:46.678Z,58.90
2022-08-09T01:03:48.221Z,59.50
2022-08-09T01:08:00.627Z,58.00
2022-08-09T01:11:56.183Z,58.40
2022-08-09T01:15:52.116Z,58.90
2022-08-09T01:19:57.102Z,59.60
2022-08-09T01:24:01.698Z,59.60
2022-08-09T01:27:52.548Z,59.60
2022-08-09T01:32:29.681Z,60.40
2022-08-09T01:35:46.163Z,60.60
2022-08-09T01:39:35.763Z,60.40
2022-08-09T01:43:19.258Z,60.90
2022-08-09T01:47:07.428Z,61.10
2022-08-09T01:50:55.549Z,61.00
2022-08-09T01:54:48.496Z,61.30
2022-08-09T01:58:32.380Z,61.60
2022-08-09T02:02:16.937Z,61.80
2022-08-09T02:06:06.335Z,62.00
2022-08-09T02:10:04.119Z,62.00
2022-08-09T02:14:07.405Z,61.70
2022-08-09T02:18:00.908Z,62.50
2022-08-09T02:21:57.850Z,62.60
2022-08-09T02:25:49.456Z,62.90
2022-08-09T02:29:43.101Z,63.20
2022-08-09T02:33:58.674Z,63.30
2022-08-09T02:37:33.095Z,63.40
2022-08-09T02:41:47.237Z,63.60
2022-08-09T02:45:35.486Z,63.70
2022-08-09T02:49:38.377Z,63.70
2022-08-09T02:53:27.173Z,63.80
2022-08-09T02:57:14.131Z,63.60
2022-08-09T03:01:08.049Z,64.00
2022-08-09T03:04:52.176Z,59.70
2022-08-09T03:08:35.535Z,64.10
2022-08-09T03:12:18.827Z,64.40
2022-08-09T03:16:06.873Z,64.70
2022-08-09T03:19:58.092Z,64.70
2022-08-09T03:24:03.976Z,64.90
2022-08-09T03:27:52.852Z,65.20
2022-08-09T03:31:42.633Z,65.30
2022-08-09T03:36:13.892Z,65.70
2022-08-09T03:39:48.589Z,66.10
2022-08-09T03:43:37.836Z,66.10
2022-08-09T03:47:19.639Z,66.60
2022-08-09T03:51:05.152Z,66.90
2022-08-09T03:55:09.821Z,67.00
2022-08-09T03:58:52.003Z,67.00
2022-08-09T04:02:38.111Z,67.10
2022-08-09T04:06:27.020Z,67.30
2022-08-09T04:10:09.840Z,67.40
2022-08-09T04:14:59.111Z,67.60
2022-08-09T04:17:54.116Z,67.80
2022-08-09T04:21:41.900Z,67.80
2022-08-09T04:25:23.861Z,67.90
2022-08-09T04:29:13.356Z,67.80
2022-08-09T04:32:56.951Z,67.80
2022-08-09T04:36:40.405Z,67.90
2022-08-09T04:40:56.436Z,67.90
2022-08-09T04:44:39.216Z,68.00
2022-08-09T04:48:33.425Z,68.00
2022-08-09T04:52:18.391Z,68.10
2022-08-09T04:56:09.198Z,68.20
2022-08-09T04:59:54.246Z,68.40
2022-08-09T05:03:42.729Z,68.50
2022-08-09T05:07:29.386Z,68.50
2022-08-09T05:11:13.964Z,68.70
2022-08-09T05:14:57.616Z,69.00
2022-08-09T05:18:58.337Z,69.30
2022-08-09T05:23:55.003Z,69.40
2022-08-09T05:26:45.702Z,69.60
2022-08-09T05:30:31.243Z,69.80
2022-08-09T05:34:16.475Z,69.80
2022-08-09T05:37:59.311Z,70.60
2022-08-09T05:41:41.231Z,69.90
2022-08-09T05:45:24.836Z,70.20
2022-08-09T05:49:07.403Z,70.50
2022-08-09T05:53:21.444Z,70.50
2022-08-09T05:57:12.710Z,70.60
2022-08-09T06:00:55.940Z,71.00
2022-08-09T06:04:44.721Z,71.00
2022-08-09T06:08:28.057Z,71.10
2022-08-09T06:12:10.508Z,71.20
2022-08-09T06:15:53.432Z,71.10
2022-08-09T06:19:36.890Z,71.20
2022-08-09T06:23:18.854Z,71.50
2022-08-09T06:27:00.832Z,71.50
2022-08-09T06:30:43.365Z,71.80
2022-08-09T06:34:26.239Z,72.00
2022-08-09T06:38:11.802Z,71.90
2022-08-09T06:42:08.959Z,72.10
2022-08-09T06:46:06.833Z,72.10
2022-08-09T06:50:13.267Z,72.80
2022-08-09T06:53:55.811Z,73.30
2022-08-09T06:58:02.175Z,73.40
2022-08-09T07:01:54.229Z,74.20
2022-08-09T07:06:02.459Z,74.10
2022-08-09T07:09:59.590Z,73.80
2022-08-09T07:14:05.062Z,73.40
2022-08-09T07:17:56.121Z,74.40
2022-08-09T07:21:55.448Z,74.30
2022-08-09T07:25:43.384Z,74.50
2022-08-09T07:29:25.983Z,74.50
2022-08-09T07:33:16.387Z,74.60
2022-08-09T07:36:58.571Z,74.30
2022-08-09T07:41:08.181Z,74.10
2022-08-09T07:44:51.147Z,74.00
2022-08-09T07:48:36.554Z,73.90
2022-08-09T07:52:20.997Z,74.10
2022-08-09T07:56:06.431Z,70.90
2022-08-09T08:00:03.097Z,73.80
2022-08-09T08:03:45.943Z,73.20
2022-08-09T08:08:43.723Z,73.60
2022-08-09T08:12:19.775Z,73.00
2022-08-09T08:15:35.565Z,72.90
2022-08-09T08:19:20.409Z,72.50
2022-08-09T08:23:15.872Z,73.70
2022-08-09T08:26:59.838Z,74.40
2022-08-09T08:30:42.850Z,73.20
2022-08-09T08:34:25.606Z,73.20
2022-08-09T08:38:11.602Z,72.90
2022-08-09T08:41:54.346Z,72.30
2022-08-09T08:45:53.605Z,72.20
2022-08-09T08:49:49.355Z,71.70
2022-08-09T08:53:37.031Z,71.50
2022-08-09T08:57:20.992Z,70.60
2022-08-09T09:01:09.083Z,70.10
2022-08-09T09:05:05.929Z,69.90
2022-08-09T09:08:59.414Z,69.30
2022-08-09T09:12:44.456Z,68.90
2022-08-09T09:16:34.130Z,68.70
2022-08-09T09:20:16.593Z,67.30
2022-08-09T09:24:10.339Z,66.10
2022-08-09T09:28:10.638Z,65.80
2022-08-09T09:32:06.475Z,65.00
2022-08-09T09:36:03.637Z,64.60
2022-08-09T09:39:57.154Z,63.90
2022-08-09T09:44:11.721Z,62.40
2022-08-09T09:47:56.199Z,62.30
2022-08-09T09:51:41.664Z,60.90
2022-08-09T09:55:31.387Z,59.60
2022-08-09T09:59:20.720Z,58.10
2022-08-09T10:03:11.407Z,54.70
2022-08-09T10:06:55.633Z,50.30
2022-08-09T10:10:39.441Z,48.30
2022-08-09T10:14:33.372Z,45.70
2022-08-09T10:18:15.952Z,45.40
2022-08-09T10:21:59.950Z,41.30
2022-08-09T10:26:07.712Z,39.70
2022-08-09T10:30:28.329Z,37.80
2022-08-09T10:34:10.954Z,36.40
2022-08-09T10:37:51.967Z,36.20
2022-08-09T10:41:35.204Z,34.10
2022-08-09T10:45:17.852Z,34.30
2022-08-09T10:49:10.535Z,33.60
2022-08-09T10:53:11.749Z,31.90
2022-08-09T10:57:09.445Z,36.00
2022-08-09T11:03:02.940Z,35.80
2022-08-09T11:05:25.162Z,30.50
2022-08-09T11:09:17.506Z,34.70
2022-08-09T11:13:49.243Z,29.30
2022-08-09T11:17:22.247Z,32.80
2022-08-09T11:21:05.615Z,30.00
2022-08-09T11:24:57.882Z,29.00
2022-08-09T11:28:56.073Z,31.40
2022-08-09T11:32:42.831Z,29.10
2022-08-09T11:36:35.318Z,28.30
2022-08-09T11:40:29.872Z,28.10
2022-08-09T11:44:13.480Z,29.90
2022-08-09T11:48:05.247Z,27.40
2022-08-09T11:53:55.123Z,28.00
2022-08-09T11:56:15.147Z,30.00
2022-08-09T12:00:13.062Z,29.30
2022-08-09T12:04:03.373Z,27.80
2022-08-09T12:07:47.264Z,28.20
2022-08-09T12:11:31.472Z,27.00
2022-08-09T12:15:50.323Z,26.60
2022-08-09T12:19:32.039Z,27.00
2022-08-09T12:23:14.161Z,26.00
2022-08-09T12:29:12.150Z,26.40
2022-08-09T12:32:02.566Z,25.50
2022-08-09T12:35:41.797Z,28.40
2022-08-09T12:39:24.877Z,25.30
2022-08-09T12:43:09.696Z,25.10
2022-08-09T12:46:51.653Z,25.10
2022-08-09T12:50:35.921Z,24.80
2022-08-09T12:54:19.064Z,25.10
2022-08-09T12:58:12.303Z,24.80
2022-08-09T13:02:09.898Z,25.70
2022-08-09T13:06:14.307Z,24.50
2022-08-09T13:10:04.246Z,24.80
2022-08-09T13:14:37.880Z,25.00
2022-08-09T13:18:04.985Z,24.10
2022-08-09T13:22:35.194Z,24.30
2022-08-09T13:25:53.349Z,24.50
2022-08-09T13:30:02.859Z,24.00
2022-08-09T13:33:53.479Z,23.80
2022-08-09T13:37:51.052Z,23.30
2022-08-09T13:41:59.139Z,23.40
2022-08-09T13:46:42.579Z,23.70
2022-08-09T13:49:56.286Z,23.40
2022-08-09T13:53:43.618Z,23.40
2022-08-09T13:57:35.755Z,23.40
2022-08-09T14:01:56.607Z,23.90
2022-08-09T14:05:58.820Z,23.20
2022-08-09T14:09:25.544Z,23.30
2022-08-09T14:13:12.085Z,23.60
2022-08-09T14:17:03.809Z,23.10
2022-08-09T14:20:46.801Z,23.80
2022-08-09T14:24:32.420Z,23.70
2022-08-09T14:28:15.452Z,23.00
2022-08-09T14:32:04.647Z,23.50
2022-08-09T14:35:53.586Z,23.50
2022-08-09T14:39:45.795Z,23.60
2022-08-09T14:43:47.514Z,24.10
2022-08-09T14:47:45.270Z,25.00
2022-08-09T14:51:31.365Z,25.50
2022-08-09T14:55:24.560Z,26.60
2022-08-09T14:59:08.631Z,27.50
2022-08-09T15:02:56.399Z,27.80
2022-08-09T15:06:40.264Z,28.30
2022-08-09T15:10:24.989Z,28.40
2022-08-09T15:14:13.271Z,28.30
2022-08-09T15:17:56.029Z,28.60
2022-08-09T15:22:01.230Z,28.70
2022-08-09T15:25:41.462Z,28.20
2022-08-09T15:30:58.819Z,28.70
2022-08-09T15:34:15.436Z,28.60
2022-08-09T15:37:57.322Z,28.60
2022-08-09T15:41:42.213Z,28.40
2022-08-09T15:45:29.877Z,28.90
2022-08-09T15:49:22.704Z,29.00
2022-08-09T15:53:06.664Z,29.20
2022-08-09T15:57:00.429Z,29.40
2022-08-09T16:00:42.507Z,29.10
2022-08-09T16:04:27.306Z,29.20
2022-08-09T16:08:24.762Z,29.70
2022-08-09T16:12:12.550Z,29.00
2022-08-09T16:16:04.534Z,29.50
2022-08-09T16:20:04.771Z,29.50
2022-08-09T16:23:55.036Z,29.40
2022-08-09T16:27:38.565Z,29.60
2022-08-09T16:32:10.361Z,29.40
2022-08-09T16:35:39.191Z,29.50
2022-08-09T16:39:27.051Z,29.60
2022-08-09T16:43:22.252Z,29.70
2022-08-09T16:48:39.026Z,29.50
2022-08-09T16:51:08.029Z,30.00
2022-08-09T16:54:50.611Z,30.00
2022-08-09T16:58:35.649Z,30.10
2022-08-09T17:02:17.991Z,30.30
2022-08-09T17:06:32.088Z,30.20
2022-08-09T17:10:12.332Z,30.20
2022-08-09T17:14:00.959Z,29.80
2022-08-09T17:17:50.294Z,30.00
2022-08-09T17:21:33.167Z,29.70
2022-08-09T17:25:15.370Z,30.20
2022-08-09T17:28:57.204Z,30.30
2022-08-09T17:32:39.689Z,29.80
2022-08-09T17:36:26.327Z,29.90
2022-08-09T17:40:16.931Z,30.10
2022-08-09T17:44:38.564Z,29.80
2022-08-09T17:48:02.831Z,30.10
2022-08-09T17:51:44.934Z,30.20
2022-08-09T17:55:47.209Z,30.50
2022-08-09T17:59:36.574Z,30.90
2022-08-09T18:03:20.352Z,30.90
2022-08-09T18:07:07.503Z,31.80
2022-08-09T18:11:00.648Z,32.00
2022-08-09T18:14:49.720Z,32.10
2022-08-09T18:18:33.029Z,32.80
2022-08-09T18:22:17.188Z,33.20
2022-08-09T18:26:00.053Z,33.10
2022-08-09T18:30:34.665Z,33.10
2022-08-09T18:33:53.078Z,33.90
2022-08-09T18:37:48.841Z,33.50
2022-08-09T18:41:36.977Z,34.20
2022-08-09T18:46:51.367Z,34.50
2022-08-09T18:49:26.263Z,34.30
2022-08-09T18:53:13.350Z,34.70
2022-08-09T18:56:55.604Z,35.80
2022-08-09T19:00:37.560Z,34.60
2022-08-09T19:04:24.837Z,35.80
2022-08-09T19:08:19.674Z,35.80
2022-08-09T19:12:01.836Z,35.00
2022-08-09T19:15:45.083Z,35.80
2022-08-09T19:19:41.433Z,36.50
2022-08-09T19:24:33.573Z,37.00
2022-08-09T19:27:28.357Z,37.00
2022-08-09T19:31:10.920Z,37.60
2022-08-09T19:34:54.023Z,38.30
2022-08-09T19:38:36.321Z,40.10
2022-08-09T19:42:31.384Z,40.80
2022-08-09T19:46:14.719Z,40.10
2022-08-09T19:50:08.042Z,39.20
2022-08-09T19:54:00.518Z,39.50
2022-08-09T19:57:42.529Z,40.90
2022-08-09T20:01:24.807Z,41.80
2022-08-09T20:05:26.954Z,42.50
2022-08-09T20:09:20.610Z,42.80
2022-08-09T20:13:16.469Z,42.90
2022-08-09T20:17:02.525Z,43.50
2022-08-09T20:20:44.565Z,43.30
2022-08-09T20:24:32.082Z,42.90
2022-08-09T20:28:24.422Z,43.30
2022-08-09T20:32:30.642Z,43.90
2022-08-09T20:36:14.776Z,43.90
2022-08-09T20:40:16.033Z,44.10
2022-08-09T20:44:00.141Z,45.30
2022-08-09T20:47:47.825Z,46.10
2022-08-09T20:51:30.686Z,45.40
2022-08-09T20:55:23.128Z,45.90
2022-08-09T20:59:09.865Z,45.80
2022-08-09T21:02:52.236Z,45.60
2022-08-09T21:06:35.038Z,45.20
2022-08-09T21:10:19.279Z,46.10
2022-08-09T21:14:01.163Z,45.70
2022-08-09T21:18:23.352Z,45.20
2022-08-09T21:21:53.033Z,46.20
2022-08-09T21:25:59.717Z,46.80
2022-08-09T21:29:48.700Z,47.40
2022-08-09T21:33:36.259Z,47.90
2022-08-09T21:37:19.736Z,47.80
2022-08-09T21:41:08.416Z,48.10
2022-08-09T21:44:50.897Z,47.90
2022-08-09T21:48:34.379Z,48.40
2022-08-09T21:52:20.607Z,48.60
2022-08-09T21:56:03.589Z,49.00
2022-08-09T21:59:45.597Z,48.90
2022-08-09T22:03:27.827Z,49.40
2022-08-09T22:07:09.748Z,50.10
2022-08-09T22:11:00.552Z,50.50
2022-08-09T22:14:58.095Z,50.70
2022-08-09T22:18:54.390Z,51.10
2022-08-09T22:22:37.085Z,51.00
2022-08-09T22:26:23.525Z,51.10
2022-08-09T22:30:31.466Z,51.20
2022-08-09T22:34:15.344Z,51.50
2022-08-09T22:38:06.934Z,51.60
2022-08-09T22:41:49.809Z,52.00
2022-08-09T22:48:13.939Z,52.00
2022-08-09T22:49:36.683Z,52.40
2022-08-09T22:53:23.423Z,52.70
2022-08-09T22:57:05.852Z,53.00
2022-08-09T23:00:51.689Z,53.30
2022-08-09T23:04:33.546Z,53.50
2022-08-09T23:08:39.003Z,53.70
2022-08-09T23:12:20.980Z,53.80
2022-08-09T23:16:03.761Z,54.10
2022-08-09T23:20:06.903Z,54.20
2022-08-09T23:24:06.014Z,54.50
2022-08-09T23:27:57.254Z,54.70
2022-08-09T23:31:54.289Z,54.80
2022-08-09T23:36:04.731Z,55.10
2022-08-09T23:39:41.352Z,55.30
2022-08-09T23:43:23.349Z,55.70
2022-08-09T23:47:05.260Z,56.20
2022-08-09T23:50:47.252Z,56.50
2022-08-09T23:54:29.057Z,56.80
2022-08-09T23:58:25.945Z,57.00
